KFWA/FWA METAR and TAF weather

Enter ICAO airport designator
Station Type Date Time Source
KFWA METAR 2018/12/10 08:54 UTC NOAA

KFWA 100854Z 35003KT 4SM BR OVC007 M04/M06 A3026 RMK AO2 SLP254 I3001 T10391056 56002 $


Station Type Date Time Source
KFWA Decoded METAR 2018/12/10 08:54 UTC NOAA

FORT WAYNE INTERNATIONAL, IN, United States (KFWA) 41-00N 85-12W 248M
Dec 10, 2018 - 03:54 AM EST / 2018.12.10 0854 UTC
Wind: from the N (350 degrees) at 3 MPH (3 KT):0
Visibility: 4 mile(s):0
Sky conditions: overcast
Weather: mist
Temperature: 25.0 F (-3.9 C)
Dew Point: 21.9 F (-5.6 C)
Relative Humidity: 87%
Pressure (altimeter): 30.26 in. Hg (1024 hPa)
Pressure tendency: 0.01 inches (0.2 hPa) lower than three hours ago
ob: KFWA 100854Z 35003KT 4SM BR OVC007 M04/M06 A3026 RMK AO2 SLP254 I3001 T10391056 56002
cycle: 9

Station Type Date Time Source
KFWA TAF 2018/12/10 06:27 UTC NOAA

TAF KFWA 100524Z 1006/1106 33004KT P6SM FEW250
FM100800 32003KT 5SM BR BKN008
FM101500 29006KT P6SM BKN020
FM101800 25006KT P6SM SCT100


Example: see airport list